createdAt,value
2022-12-03T01:19:37.805Z,25.13
2022-12-03T02:10:34.654Z,24.47
2022-12-03T02:33:52.693Z,18.43
2022-12-03T02:51:06.601Z,17.23
2022-12-03T03:15:29.311Z,16.17
2022-12-03T03:26:56.365Z,17.63
2022-12-03T03:44:40.283Z,16.73
2022-12-03T03:56:55.792Z,18.93
2022-12-03T04:02:38.240Z,19.17
2022-12-03T04:20:33.011Z,18.93
2022-12-03T04:42:49.706Z,21.30
2022-12-03T04:48:41.915Z,19.37
2022-12-03T04:54:35.576Z,16.73
2022-12-03T05:18:32.486Z,19.47
2022-12-03T05:30:25.958Z,20.73
2022-12-03T05:35:54.259Z,21.73
2022-12-03T06:29:55.727Z,21.07
2022-12-03T06:48:46.922Z,20.53
2022-12-03T08:16:47.918Z,21.80
2022-12-03T08:22:47.696Z,22.27
2022-12-03T08:47:43.386Z,21.93
2022-12-03T08:58:41.197Z,23.73
2022-12-03T09:10:52.649Z,21.43
2022-12-03T10:00:38.853Z,24.60
2022-12-03T10:06:42.379Z,20.47
2022-12-03T10:12:58.747Z,18.30
2022-12-03T10:24:42.917Z,20.07
2022-12-03T10:36:50.675Z,21.20
2022-12-03T11:01:23.693Z,23.07
2022-12-03T11:06:25.737Z,22.77
2022-12-03T11:11:29.886Z,22.37
2022-12-03T11:16:49.801Z,20.73
2022-12-03T11:22:08.722Z,22.27
2022-12-03T11:27:10.473Z,21.90
2022-12-03T11:32:38.267Z,20.03
2022-12-03T11:37:40.237Z,19.13
2022-12-03T11:42:48.282Z,20.90
2022-12-03T11:48:04.441Z,21.70
2022-12-03T11:53:23.344Z,22.43
2022-12-03T11:58:29.389Z,22.30
2022-12-03T12:03:34.083Z,23.17
2022-12-03T12:09:06.042Z,19.57
2022-12-03T12:14:12.440Z,19.90
2022-12-03T12:19:37.215Z,19.17
2022-12-03T12:24:47.948Z,21.10
2022-12-03T12:29:57.655Z,19.57
2022-12-03T12:35:25.584Z,18.87
2022-12-03T12:40:40.070Z,19.73
2022-12-03T12:45:43.241Z,17.20
2022-12-03T12:50:51.808Z,17.40
2022-12-03T12:56:20.412Z,17.30
2022-12-03T13:01:29.533Z,17.83
2022-12-03T13:06:31.975Z,16.93
2022-12-03T13:11:38.760Z,19.30
2022-12-03T13:16:40.824Z,17.93
2022-12-03T13:21:48.216Z,20.03
2022-12-03T13:27:16.146Z,18.20
2022-12-03T13:32:23.303Z,17.67
2022-12-03T13:37:28.371Z,21.53
2022-12-03T13:42:40.932Z,21.10
2022-12-03T13:47:48.318Z,21.40
2022-12-03T13:52:53.146Z,21.20
2022-12-03T13:57:55.284Z,21.53
2022-12-03T14:03:02.231Z,19.30
2022-12-03T14:08:12.433Z,19.80
2022-12-03T14:13:25.021Z,21.40
2022-12-03T14:18:29.545Z,23.17
2022-12-03T14:23:31.336Z,21.50
2022-12-03T14:28:33.102Z,20.97
2022-12-03T14:33:34.841Z,20.37
2022-12-03T14:38:39.978Z,23.43
2022-12-03T14:43:44.547Z,19.97
2022-12-03T14:48:46.400Z,21.67
2022-12-03T16:34:49.586Z,34.30
2022-12-03T16:39:51.252Z,25.90
2022-12-03T16:45:08.222Z,28.70
2022-12-03T16:50:14.561Z,29.93
2022-12-03T16:55:19.860Z,26.33
2022-12-03T17:00:22.009Z,31.07
2022-12-03T17:05:28.405Z,27.80
2022-12-03T17:15:51.514Z,28.07
2022-12-03T17:28:37.529Z,27.17
2022-12-03T18:29:46.813Z,30.97
2022-12-03T18:34:48.785Z,28.87
2022-12-03T18:39:50.471Z,31.93
2022-12-03T18:44:54.057Z,30.67
2022-12-03T18:49:56.713Z,32.30
2022-12-03T18:55:14.497Z,31.03
2022-12-03T19:00:18.477Z,31.60
2022-12-03T19:05:30.305Z,29.33
2022-12-03T19:10:33.352Z,30.70
2022-12-03T19:15:44.494Z,30.60
2022-12-03T19:20:51.832Z,31.27
2022-12-03T20:16:51.330Z,37.70
2022-12-03T20:33:17.783Z,36.53
2022-12-03T20:38:20.020Z,34.97
2022-12-03T21:15:05.041Z,33.30
2022-12-03T21:20:21.256Z,36.10
2022-12-03T21:25:23.311Z,33.50
2022-12-03T21:30:25.260Z,33.63
2022-12-03T21:35:29.742Z,36.83
2022-12-03T21:47:09.219Z,31.97
2022-12-03T21:52:57.667Z,35.77
2022-12-03T21:57:59.590Z,36.40
2022-12-03T22:09:49.449Z,34.67
2022-12-03T22:16:00.740Z,35.03
2022-12-03T22:21:56.245Z,33.00
2022-12-03T22:28:00.628Z,33.93
2022-12-03T22:33:41.250Z,34.17
2022-12-03T22:40:03.988Z,32.77
2022-12-03T22:51:33.365Z,34.20
2022-12-03T22:56:35.343Z,30.50
2022-12-03T23:02:00.542Z,32.43
2022-12-03T23:07:03.615Z,32.50
2022-12-03T23:12:56.898Z,33.83
2022-12-03T23:17:59.153Z,29.70
2022-12-03T23:41:38.132Z,29.13
2022-12-03T23:46:41.454Z,30.70
2022-12-03T23:51:47.535Z,29.87
2022-12-03T23:57:21.123Z,31.63
